Huvudsida
METAR-TAF:

METAR-TAF

Flygplatser :

Tabuk, Saudiarabien

latitud: 28-22N, longitud: 036-36E, höjd: 778 m

Aktuellt väderrapport

Denna rapport gjordes för 27 minuter sedan, klockan 21:00 UTC
Vind 4 kt från nordost
Temperatur 28°C
Fuktighet 12%
Tryck 1017 hPa
Sikt 10 km eller mer
Inga moln under 1 500 m eller inga cumulonimbus

METAR: OETB 212100Z 04004KT CAVOK 28/M04 Q1017 NOSIG

Tid: 00:27 (21:27 UTC)

Väderprognos

Denna rapport gjordes för 10 timmar och 27 minuter sedan, klockan 11:00 UTC
Prognos gäller från 21 kl. 12 UTC till 22 kl. 18 UTC
Vind 10 kt från nord/nordost
Sikt 10 km eller mer
Inga moln under 1 500 m eller inga cumulonimbus
Blir
från 21 kl. 22 UTC till 21 kl. 24 UTC
Vind 10 kt från väst

TAF: OETB 211100Z 2112/2218 03010KT CAVOK BECMG 2122/2124 26010KT

Aktuella väderrapporter och prognoser från 4000 flygplatser (METAR- och TAF-rapporter).

De tillgängliga stationerna syns som gula och röda prickar på kartan.

För musen över prickarna för att se namnen på stationerna.

Klicka sedan för att få väderrapporter och prognoser.

För att ändra kartan: Klicka på de gröna knapparna med ett svart kors på för att zooma in; den gröna knappen med ett streck på för att zooma ut; eller på de gröna pilarna för angränsande kartor.


METAR-TAF: